SCO17HI EGBB-EGPH
Flight info
| Callsign | SCO17HI |
|---|---|
| Flight time | 0h 58m |
| Altitude | 28000 |
| Route | LUVUM DCT TNT N57 POL UN601 RIBEL DCT INPIP |
| Aircraft | A320/M-SDE3FGHIRWY/LB1 |
Departure
| Time | 2026-05-04 21:09 |
|---|---|
| Airport | Birmingham Airport (EGBB) |
Arrival
| Time | 2026-05-04 22:08 |
|---|---|
| Airport | Edinburgh Airport (EGPH) |
| Time | Latitude | Longitude | Altitude | Speed | Heading |
|---|---|---|---|---|---|
| 2026-05-04 20:40 | 52.45139 | -1.73433 | 324 ft | 0 kts | 141° |
| 2026-05-04 20:58 | 52.45150 | -1.73449 | 324 ft | 4 kts | 141° |
| 2026-05-04 20:58 | 52.45167 | -1.73470 | 324 ft | 4 kts | 154° |
| 2026-05-04 20:58 | 52.45191 | -1.73479 | 322 ft | 4 kts | 201° |
| 2026-05-04 20:59 | 52.45211 | -1.73454 | 324 ft | 3 kts | 236° |
| 2026-05-04 20:59 | 52.45201 | -1.73477 | 324 ft | 4 kts | 236° |
| 2026-05-04 20:59 | 52.45195 | -1.73492 | 324 ft | 0 kts | 236° |
| 2026-05-04 21:02 | 52.45185 | -1.73515 | 323 ft | 6 kts | 236° |
| 2026-05-04 21:02 | 52.45165 | -1.73568 | 323 ft | 5 kts | 239° |
| 2026-05-04 21:02 | 52.45148 | -1.73614 | 323 ft | 4 kts | 238° |
| 2026-05-04 21:03 | 52.45132 | -1.73651 | 323 ft | 4 kts | 232° |
| 2026-05-04 21:03 | 52.45118 | -1.73680 | 323 ft | 3 kts | 232° |
| 2026-05-04 21:03 | 52.45106 | -1.73705 | 323 ft | 3 kts | 232° |
| 2026-05-04 21:03 | 52.45060 | -1.73742 | 323 ft | 9 kts | 191° |
| 2026-05-04 21:04 | 52.45009 | -1.73716 | 322 ft | 7 kts | 149° |
| 2026-05-04 21:04 | 52.44969 | -1.73673 | 323 ft | 6 kts | 146° |
| 2026-05-04 21:04 | 52.44934 | -1.73642 | 322 ft | 6 kts | 162° |
| 2026-05-04 21:04 | 52.44872 | -1.73662 | 324 ft | 9 kts | 196° |
| 2026-05-04 21:05 | 52.44815 | -1.73689 | 324 ft | 8 kts | 197° |
| 2026-05-04 21:05 | 52.44767 | -1.73713 | 324 ft | 6 kts | 197° |
| 2026-05-04 21:05 | 52.44732 | -1.73746 | 322 ft | 5 kts | 223° |
| 2026-05-04 21:05 | 52.44720 | -1.73775 | 323 ft | 0 kts | 238° |
| 2026-05-04 21:07 | 52.44718 | -1.73780 | 323 ft | 3 kts | 238° |
| 2026-05-04 21:07 | 52.44704 | -1.73815 | 322 ft | 3 kts | 238° |
| 2026-05-04 21:07 | 52.44694 | -1.73840 | 324 ft | 7 kts | 237° |
| 2026-05-04 21:07 | 52.44670 | -1.73902 | 326 ft | 7 kts | 237° |
| 2026-05-04 21:08 | 52.44652 | -1.73972 | 327 ft | 6 kts | 277° |
| 2026-05-04 21:08 | 52.44674 | -1.74013 | 327 ft | 4 kts | 326° |
| 2026-05-04 21:08 | 52.44681 | -1.74020 | 327 ft | 0 kts | 327° |
| 2026-05-04 21:08 | 52.44774 | -1.74121 | 323 ft | 52 kts | 326° |
| 2026-05-04 21:09 | 52.45280 | -1.74681 | 323 ft | 121 kts | 326° |
| 2026-05-04 21:09 | 52.46130 | -1.75620 | 409 ft | 165 kts | 326° |
| 2026-05-04 21:09 | 52.47088 | -1.76679 | 1096 ft | 166 kts | 327° |
| 2026-05-04 21:09 | 52.48043 | -1.77745 | 1804 ft | 170 kts | 327° |
| 2026-05-04 21:10 | 52.49114 | -1.78798 | 2192 ft | 190 kts | 342° |
| 2026-05-04 21:10 | 52.50487 | -1.79027 | 2523 ft | 210 kts | 8° |
| 2026-05-04 21:10 | 52.52007 | -1.78695 | 2952 ft | 233 kts | 8° |
| 2026-05-04 21:10 | 52.53687 | -1.78339 | 3577 ft | 251 kts | 8° |
| 2026-05-04 21:11 | 52.55445 | -1.77979 | 4523 ft | 257 kts | 7° |
| 2026-05-04 21:11 | 52.57240 | -1.77613 | 5484 ft | 262 kts | 7° |
| 2026-05-04 21:11 | 52.59071 | -1.77237 | 6416 ft | 268 kts | 7° |
| 2026-05-04 21:11 | 52.60933 | -1.76851 | 7346 ft | 272 kts | 7° |
| 2026-05-04 21:12 | 52.62831 | -1.76462 | 8260 ft | 277 kts | 6° |
| 2026-05-04 21:12 | 52.64758 | -1.76071 | 9151 ft | 282 kts | 6° |
| 2026-05-04 21:12 | 52.66721 | -1.75673 | 10023 ft | 286 kts | 6° |
| 2026-05-04 21:12 | 52.68754 | -1.75258 | 10520 ft | 306 kts | 6° |
| 2026-05-04 21:13 | 52.70941 | -1.74808 | 10976 ft | 324 kts | 6° |
| 2026-05-04 21:13 | 52.73204 | -1.74332 | 11726 ft | 331 kts | 7° |
| 2026-05-04 21:13 | 52.75504 | -1.73816 | 12507 ft | 336 kts | 7° |
| 2026-05-04 21:13 | 52.77841 | -1.73281 | 13275 ft | 341 kts | 7° |
| 2026-05-04 21:14 | 52.80205 | -1.72738 | 14026 ft | 345 kts | 7° |
| 2026-05-04 21:14 | 52.82604 | -1.72190 | 14748 ft | 350 kts | 7° |
| 2026-05-04 21:14 | 52.84207 | -1.71822 | 15216 ft | 352 kts | 7° |
| 2026-05-04 21:14 | 52.86649 | -1.71264 | 15900 ft | 357 kts | 7° |
| 2026-05-04 21:15 | 52.89123 | -1.70704 | 16576 ft | 361 kts | 7° |
| 2026-05-04 21:15 | 52.91622 | -1.70141 | 17250 ft | 364 kts | 7° |
| 2026-05-04 21:15 | 52.94148 | -1.69569 | 17888 ft | 368 kts | 7° |
| 2026-05-04 21:15 | 52.96703 | -1.68985 | 18523 ft | 372 kts | 7° |
| 2026-05-04 21:16 | 52.99280 | -1.68398 | 19142 ft | 376 kts | 7° |
| 2026-05-04 21:16 | 53.01919 | -1.67799 | 19753 ft | 380 kts | 6° |
| 2026-05-04 21:16 | 53.04527 | -1.67611 | 20318 ft | 382 kts | 355° |
| 2026-05-04 21:16 | 53.07162 | -1.68245 | 20886 ft | 384 kts | 344° |
| 2026-05-04 21:17 | 53.09699 | -1.69644 | 21443 ft | 386 kts | 338° |
| 2026-05-04 21:17 | 53.12219 | -1.71220 | 21994 ft | 389 kts | 338° |
| 2026-05-04 21:17 | 53.14635 | -1.72726 | 22482 ft | 392 kts | 338° |
| 2026-05-04 21:17 | 53.17195 | -1.74317 | 23004 ft | 395 kts | 338° |
| 2026-05-04 21:18 | 53.19779 | -1.75920 | 23503 ft | 398 kts | 338° |
| 2026-05-04 21:18 | 53.22385 | -1.77536 | 23999 ft | 400 kts | 338° |
| 2026-05-04 21:18 | 53.25005 | -1.79163 | 24475 ft | 403 kts | 338° |
| 2026-05-04 21:18 | 53.27642 | -1.80808 | 24953 ft | 406 kts | 338° |
| 2026-05-04 21:19 | 53.30289 | -1.82460 | 25438 ft | 407 kts | 338° |
| 2026-05-04 21:19 | 53.32949 | -1.84121 | 25914 ft | 409 kts | 339° |
| 2026-05-04 21:19 | 53.35622 | -1.85795 | 26366 ft | 411 kts | 339° |
| 2026-05-04 21:19 | 53.38302 | -1.87475 | 26809 ft | 413 kts | 339° |
| 2026-05-04 21:20 | 53.40997 | -1.89166 | 27250 ft | 414 kts | 339° |
| 2026-05-04 21:20 | 53.43701 | -1.90867 | 27678 ft | 416 kts | 339° |
| 2026-05-04 21:20 | 53.46410 | -1.92576 | 27986 ft | 417 kts | 339° |
| 2026-05-04 21:20 | 53.49109 | -1.94283 | 28063 ft | 408 kts | 339° |
| 2026-05-04 21:21 | 53.51706 | -1.95926 | 28072 ft | 391 kts | 339° |
| 2026-05-04 21:21 | 53.54229 | -1.97522 | 28072 ft | 385 kts | 339° |
| 2026-05-04 21:21 | 53.59208 | -2.00670 | 28072 ft | 381 kts | 339° |
| 2026-05-04 21:22 | 53.64169 | -2.03808 | 28072 ft | 380 kts | 339° |
| 2026-05-04 21:22 | 53.69124 | -2.06951 | 28063 ft | 381 kts | 339° |
| 2026-05-04 21:23 | 53.73945 | -2.10030 | 28058 ft | 380 kts | 339° |
| 2026-05-04 21:23 | 53.78868 | -2.13296 | 28056 ft | 380 kts | 338° |
| 2026-05-04 21:24 | 53.83765 | -2.16689 | 28056 ft | 380 kts | 338° |
| 2026-05-04 21:24 | 53.88654 | -2.20068 | 28057 ft | 379 kts | 338° |
| 2026-05-04 21:25 | 53.93546 | -2.23423 | 28057 ft | 379 kts | 338° |
| 2026-05-04 21:25 | 53.98447 | -2.26783 | 28056 ft | 380 kts | 338° |
| 2026-05-04 21:26 | 54.03342 | -2.30154 | 28057 ft | 380 kts | 338° |
| 2026-05-04 21:26 | 54.08230 | -2.33534 | 28057 ft | 379 kts | 338° |
| 2026-05-04 21:27 | 54.13115 | -2.36912 | 28053 ft | 379 kts | 338° |
| 2026-05-04 21:27 | 54.18001 | -2.40309 | 28050 ft | 379 kts | 338° |
| 2026-05-04 21:28 | 54.22879 | -2.43705 | 28049 ft | 379 kts | 338° |
| 2026-05-04 21:28 | 54.27759 | -2.47098 | 28048 ft | 379 kts | 338° |
| 2026-05-04 21:29 | 54.32638 | -2.50506 | 28048 ft | 378 kts | 337° |
| 2026-05-04 21:29 | 54.37514 | -2.53929 | 28046 ft | 378 kts | 337° |
| 2026-05-04 21:30 | 54.42382 | -2.57348 | 28049 ft | 378 kts | 337° |
| 2026-05-04 21:30 | 54.47247 | -2.60763 | 28047 ft | 377 kts | 337° |
| 2026-05-04 21:31 | 54.54528 | -2.65914 | 28040 ft | 377 kts | 336° |
| 2026-05-04 21:32 | 54.59376 | -2.69363 | 28040 ft | 377 kts | 336° |
| 2026-05-04 21:32 | 54.64222 | -2.72820 | 28040 ft | 377 kts | 336° |
| 2026-05-04 21:33 | 54.69065 | -2.76280 | 27948 ft | 375 kts | 336° |
| 2026-05-04 21:33 | 54.71456 | -2.77984 | 27696 ft | 369 kts | 336° |
| 2026-05-04 21:33 | 54.73826 | -2.79673 | 27441 ft | 367 kts | 336° |
| 2026-05-04 21:33 | 54.76181 | -2.81357 | 27196 ft | 366 kts | 335° |
| 2026-05-04 21:34 | 54.78526 | -2.83036 | 26946 ft | 364 kts | 335° |
| 2026-05-04 21:34 | 54.80865 | -2.84713 | 26697 ft | 363 kts | 335° |
| 2026-05-04 21:34 | 54.83196 | -2.86386 | 26443 ft | 361 kts | 335° |
| 2026-05-04 21:34 | 54.85515 | -2.88057 | 26195 ft | 361 kts | 335° |
| 2026-05-04 21:35 | 54.87825 | -2.89725 | 25944 ft | 357 kts | 335° |
| 2026-05-04 21:35 | 54.90115 | -2.91378 | 25494 ft | 357 kts | 335° |
| 2026-05-04 21:35 | 54.92403 | -2.93031 | 24976 ft | 356 kts | 334° |
| 2026-05-04 21:35 | 54.94685 | -2.94678 | 24479 ft | 354 kts | 334° |
| 2026-05-04 21:36 | 54.96957 | -2.96321 | 23980 ft | 353 kts | 334° |
| 2026-05-04 21:36 | 54.99223 | -2.97964 | 23483 ft | 351 kts | 334° |
| 2026-05-04 21:36 | 55.01472 | -2.99597 | 22988 ft | 350 kts | 334° |
| 2026-05-04 21:36 | 55.03720 | -3.01233 | 22483 ft | 349 kts | 334° |
| 2026-05-04 21:37 | 55.05961 | -3.02869 | 22001 ft | 349 kts | 334° |
| 2026-05-04 21:37 | 55.08198 | -3.04504 | 21505 ft | 348 kts | 334° |
| 2026-05-04 21:37 | 55.10431 | -3.06134 | 21017 ft | 347 kts | 334° |
| 2026-05-04 21:37 | 55.12657 | -3.07758 | 20527 ft | 347 kts | 334° |
| 2026-05-04 21:38 | 55.14879 | -3.09382 | 20039 ft | 346 kts | 334° |
| 2026-05-04 21:38 | 55.17101 | -3.11014 | 19464 ft | 348 kts | 334° |
| 2026-05-04 21:38 | 55.19332 | -3.12653 | 19003 ft | 346 kts | 334° |
| 2026-05-04 21:38 | 55.21551 | -3.14283 | 18416 ft | 347 kts | 333° |
| 2026-05-04 21:39 | 55.23760 | -3.15902 | 18097 ft | 341 kts | 334° |
| 2026-05-04 21:39 | 55.25929 | -3.17493 | 17498 ft | 335 kts | 334° |
| 2026-05-04 21:39 | 55.28069 | -3.19052 | 16694 ft | 332 kts | 335° |
| 2026-05-04 21:39 | 55.30300 | -3.20018 | 16052 ft | 330 kts | 350° |
| 2026-05-04 21:40 | 55.32562 | -3.19983 | 15642 ft | 321 kts | 1° |
| 2026-05-04 21:40 | 55.34769 | -3.19643 | 15016 ft | 317 kts | 1° |
| 2026-05-04 21:40 | 55.36968 | -3.19305 | 14599 ft | 316 kts | 1° |
| 2026-05-04 21:40 | 55.39149 | -3.18968 | 14282 ft | 313 kts | 1° |
| 2026-05-04 21:41 | 55.41317 | -3.18632 | 13918 ft | 312 kts | 1° |
| 2026-05-04 21:41 | 55.43474 | -3.18296 | 13530 ft | 309 kts | 1° |
| 2026-05-04 21:41 | 55.45603 | -3.17960 | 12886 ft | 306 kts | 1° |
| 2026-05-04 21:41 | 55.47716 | -3.17626 | 12243 ft | 303 kts | 1° |
| 2026-05-04 21:42 | 55.49810 | -3.17298 | 11600 ft | 300 kts | 1° |
| 2026-05-04 21:42 | 55.51879 | -3.16972 | 10955 ft | 297 kts | 1° |
| 2026-05-04 21:42 | 55.53923 | -3.16649 | 10374 ft | 292 kts | 2° |
| 2026-05-04 21:42 | 55.55932 | -3.16332 | 9874 ft | 288 kts | 2° |
| 2026-05-04 21:43 | 55.57923 | -3.16026 | 9402 ft | 288 kts | 3° |
| 2026-05-04 21:43 | 55.59925 | -3.15717 | 8939 ft | 289 kts | 3° |
| 2026-05-04 21:43 | 55.61917 | -3.15404 | 8540 ft | 288 kts | 4° |
| 2026-05-04 21:43 | 55.63903 | -3.15090 | 8196 ft | 283 kts | 4° |
| 2026-05-04 21:44 | 55.65846 | -3.14784 | 7552 ft | 279 kts | 4° |
| 2026-05-04 21:44 | 55.67749 | -3.14484 | 7127 ft | 267 kts | 4° |
| 2026-05-04 21:44 | 55.69538 | -3.14196 | 7046 ft | 253 kts | 4° |
| 2026-05-04 21:44 | 55.71282 | -3.13923 | 7052 ft | 251 kts | 4° |
| 2026-05-04 21:45 | 55.73056 | -3.13453 | 7057 ft | 266 kts | 12° |
| 2026-05-04 21:45 | 55.74870 | -3.12587 | 7053 ft | 272 kts | 14° |
| 2026-05-04 21:45 | 55.76635 | -3.11685 | 7050 ft | 257 kts | 14° |
| 2026-05-04 21:45 | 55.78335 | -3.10805 | 7054 ft | 253 kts | 14° |
| 2026-05-04 21:46 | 55.80024 | -3.09928 | 7055 ft | 253 kts | 15° |
| 2026-05-04 21:46 | 55.81715 | -3.09052 | 7051 ft | 253 kts | 15° |
| 2026-05-04 21:46 | 55.83399 | -3.08177 | 7053 ft | 252 kts | 14° |
| 2026-05-04 21:46 | 55.85082 | -3.07302 | 7053 ft | 252 kts | 15° |
| 2026-05-04 21:47 | 55.86767 | -3.06426 | 7051 ft | 252 kts | 14° |
| 2026-05-04 21:47 | 55.88449 | -3.05550 | 7053 ft | 252 kts | 15° |
| 2026-05-04 21:47 | 55.90138 | -3.04670 | 7038 ft | 252 kts | 14° |
| 2026-05-04 21:47 | 55.91813 | -3.03797 | 6706 ft | 250 kts | 15° |
| 2026-05-04 21:48 | 55.93479 | -3.02928 | 6356 ft | 249 kts | 15° |
| 2026-05-04 21:48 | 55.95131 | -3.02066 | 6007 ft | 247 kts | 14° |
| 2026-05-04 21:48 | 55.96773 | -3.01210 | 5646 ft | 245 kts | 14° |
| 2026-05-04 21:48 | 55.98411 | -3.00388 | 5286 ft | 243 kts | 9° |
| 2026-05-04 21:49 | 56.00086 | -3.00104 | 4923 ft | 241 kts | 0° |
| 2026-05-04 21:49 | 56.01756 | -2.99992 | 4603 ft | 238 kts | 0° |
| 2026-05-04 21:49 | 56.03375 | -2.99897 | 4468 ft | 228 kts | 357° |
| 2026-05-04 21:49 | 56.04852 | -3.00573 | 4337 ft | 216 kts | 326° |
| 2026-05-04 21:50 | 56.05766 | -3.02582 | 4112 ft | 210 kts | 287° |
| 2026-05-04 21:50 | 56.05758 | -3.05124 | 3930 ft | 207 kts | 250° |
| 2026-05-04 21:50 | 56.05072 | -3.07381 | 3703 ft | 207 kts | 240° |
| 2026-05-04 21:50 | 56.04316 | -3.09587 | 3426 ft | 209 kts | 240° |
| 2026-05-04 21:51 | 56.03577 | -3.11766 | 3154 ft | 199 kts | 241° |
| 2026-05-04 21:51 | 56.02883 | -3.13829 | 2905 ft | 190 kts | 241° |
| 2026-05-04 21:51 | 56.02213 | -3.15830 | 2663 ft | 186 kts | 241° |
| 2026-05-04 21:51 | 56.01553 | -3.17801 | 2405 ft | 184 kts | 241° |
| 2026-05-04 21:52 | 56.00901 | -3.19744 | 2175 ft | 179 kts | 240° |
| 2026-05-04 21:52 | 56.00283 | -3.21582 | 1939 ft | 167 kts | 240° |
| 2026-05-04 21:52 | 55.99709 | -3.23285 | 1721 ft | 154 kts | 240° |
| 2026-05-04 21:52 | 55.99176 | -3.24869 | 1519 ft | 144 kts | 240° |
| 2026-05-04 21:53 | 55.98674 | -3.26358 | 1349 ft | 135 kts | 240° |
| 2026-05-04 21:53 | 55.98195 | -3.27781 | 1163 ft | 132 kts | 240° |
| 2026-05-04 21:53 | 55.97726 | -3.29172 | 989 ft | 130 kts | 240° |
| 2026-05-04 21:53 | 55.97266 | -3.30535 | 815 ft | 130 kts | 239° |
| 2026-05-04 21:54 | 55.96795 | -3.31931 | 641 ft | 130 kts | 240° |
| 2026-05-04 21:54 | 55.96329 | -3.33306 | 472 ft | 129 kts | 239° |
| 2026-05-04 21:54 | 55.96019 | -3.34219 | 326 ft | 130 kts | 239° |
| 2026-05-04 21:54 | 55.95561 | -3.35598 | 175 ft | 129 kts | 240° |
| 2026-05-04 21:55 | 55.95075 | -3.37050 | 355 ft | 151 kts | 237° |
| 2026-05-04 21:55 | 55.94234 | -3.39280 | 1097 ft | 166 kts | 237° |
| 2026-05-04 21:55 | 55.93709 | -3.40338 | 1507 ft | 178 kts | 216° |
| 2026-05-04 21:55 | 55.92472 | -3.41065 | 1878 ft | 201 kts | 186° |
| 2026-05-04 21:56 | 55.90569 | -3.40985 | 2935 ft | 213 kts | 169° |
| 2026-05-04 21:56 | 55.89636 | -3.40275 | 3456 ft | 222 kts | 145° |
| 2026-05-04 21:56 | 55.88495 | -3.38336 | 3885 ft | 229 kts | 129° |
| 2026-05-04 21:56 | 55.87816 | -3.35815 | 3979 ft | 227 kts | 104° |
| 2026-05-04 21:57 | 55.87456 | -3.33004 | 4008 ft | 239 kts | 98° |
| 2026-05-04 21:57 | 55.87447 | -3.30044 | 4007 ft | 241 kts | 82° |
| 2026-05-04 21:57 | 55.87659 | -3.27072 | 4013 ft | 242 kts | 80° |
| 2026-05-04 21:57 | 55.87900 | -3.24111 | 3998 ft | 241 kts | 80° |
| 2026-05-04 21:58 | 55.88145 | -3.21162 | 3999 ft | 241 kts | 79° |
| 2026-05-04 21:58 | 55.88393 | -3.18249 | 3999 ft | 241 kts | 79° |
| 2026-05-04 21:58 | 55.88643 | -3.15302 | 4007 ft | 241 kts | 79° |
| 2026-05-04 21:58 | 55.89042 | -3.12431 | 4006 ft | 238 kts | 61° |
| 2026-05-04 21:59 | 55.89863 | -3.09872 | 4017 ft | 238 kts | 59° |
| 2026-05-04 21:59 | 55.90650 | -3.07272 | 3998 ft | 238 kts | 59° |
| 2026-05-04 21:59 | 55.91425 | -3.04665 | 4026 ft | 238 kts | 60° |
| 2026-05-04 21:59 | 55.92203 | -3.02050 | 4008 ft | 238 kts | 60° |
| 2026-05-04 22:00 | 55.93105 | -2.99734 | 3996 ft | 219 kts | 36° |
| 2026-05-04 22:00 | 55.94425 | -2.98687 | 3916 ft | 203 kts | 1° |
| 2026-05-04 22:00 | 55.95804 | -2.98755 | 3792 ft | 196 kts | 351° |
| 2026-05-04 22:00 | 55.96303 | -2.98850 | 3745 ft | 194 kts | 351° |
| 2026-05-04 22:01 | 55.97483 | -2.99112 | 3637 ft | 189 kts | 349° |
| 2026-05-04 22:01 | 55.98778 | -2.99400 | 3469 ft | 186 kts | 349° |
| 2026-05-04 22:01 | 55.99987 | -3.00060 | 3266 ft | 180 kts | 322° |
| 2026-05-04 22:02 | 56.00911 | -3.01562 | 3080 ft | 180 kts | 311° |
| 2026-05-04 22:02 | 56.01750 | -3.03222 | 2995 ft | 180 kts | 310° |
| 2026-05-04 22:02 | 56.02576 | -3.04909 | 3003 ft | 180 kts | 310° |
| 2026-05-04 22:02 | 56.03339 | -3.06684 | 3007 ft | 180 kts | 297° |
| 2026-05-04 22:03 | 56.03730 | -3.08794 | 3007 ft | 180 kts | 277° |
| 2026-05-04 22:03 | 56.03662 | -3.11020 | 3005 ft | 181 kts | 257° |
| 2026-05-04 22:03 | 56.03154 | -3.13043 | 2934 ft | 172 kts | 241° |
| 2026-05-04 22:03 | 56.02562 | -3.14797 | 2755 ft | 159 kts | 242° |
| 2026-05-04 22:04 | 56.02007 | -3.16448 | 2559 ft | 150 kts | 242° |
| 2026-05-04 22:04 | 56.01483 | -3.18009 | 2366 ft | 143 kts | 241° |
| 2026-05-04 22:04 | 56.00976 | -3.19518 | 2188 ft | 140 kts | 241° |
| 2026-05-04 22:04 | 56.00478 | -3.21002 | 2003 ft | 139 kts | 241° |
| 2026-05-04 22:05 | 55.99983 | -3.22475 | 1825 ft | 138 kts | 240° |
| 2026-05-04 22:05 | 55.99498 | -3.23916 | 1675 ft | 133 kts | 240° |
| 2026-05-04 22:05 | 55.99026 | -3.25317 | 1465 ft | 130 kts | 240° |
| 2026-05-04 22:05 | 55.98559 | -3.26705 | 1295 ft | 130 kts | 239° |
| 2026-05-04 22:06 | 55.98092 | -3.28087 | 1115 ft | 130 kts | 239° |
| 2026-05-04 22:06 | 55.97626 | -3.29469 | 947 ft | 130 kts | 239° |
| 2026-05-04 22:06 | 55.97162 | -3.30845 | 778 ft | 130 kts | 239° |
| 2026-05-04 22:06 | 55.96696 | -3.32224 | 616 ft | 129 kts | 239° |
| 2026-05-04 22:07 | 55.96234 | -3.33594 | 432 ft | 129 kts | 239° |
| 2026-05-04 22:07 | 55.95772 | -3.34966 | 229 ft | 129 kts | 239° |
| 2026-05-04 22:07 | 55.95314 | -3.36327 | 120 ft | 125 kts | 238° |
| 2026-05-04 22:07 | 55.94942 | -3.37427 | 111 ft | 68 kts | 238° |
| 2026-05-04 22:08 | 55.94801 | -3.37837 | 115 ft | 29 kts | 238° |
| 2026-05-04 22:08 | 55.94705 | -3.38048 | 113 ft | 20 kts | 192° |
| 2026-05-04 22:08 | 55.94626 | -3.37985 | 116 ft | 8 kts | 148° |
| 2026-05-04 22:09 | 55.94610 | -3.37968 | 116 ft | 3 kts | 147° |
| 2026-05-04 22:09 | 55.94598 | -3.37944 | 114 ft | 2 kts | 123° |
| 2026-05-04 22:09 | 55.94594 | -3.37922 | 114 ft | 2 kts | 104° |
| 2026-05-04 22:09 | 55.94593 | -3.37899 | 115 ft | 5 kts | 92° |
| 2026-05-04 22:10 | 55.94632 | -3.37763 | 115 ft | 14 kts | 58° |
| 2026-05-04 22:10 | 55.94680 | -3.37626 | 113 ft | 12 kts | 59° |
| 2026-05-04 22:10 | 55.94707 | -3.37544 | 116 ft | 12 kts | 59° |
| 2026-05-04 22:11 | 55.94743 | -3.37437 | 115 ft | 11 kts | 59° |
| 2026-05-04 22:11 | 55.94782 | -3.37323 | 113 ft | 13 kts | 59° |
| 2026-05-04 22:12 | 55.94841 | -3.37148 | 113 ft | 17 kts | 59° |
| 2026-05-04 22:12 | 55.94905 | -3.36959 | 115 ft | 19 kts | 59° |
| 2026-05-04 22:12 | 55.94974 | -3.36756 | 116 ft | 21 kts | 58° |
| 2026-05-04 22:12 | 55.95048 | -3.36537 | 114 ft | 20 kts | 59° |
| 2026-05-04 22:13 | 55.95103 | -3.36375 | 113 ft | 14 kts | 59° |
| 2026-05-04 22:13 | 55.95134 | -3.36228 | 115 ft | 12 kts | 94° |
| 2026-05-04 22:13 | 55.95111 | -3.36090 | 116 ft | 11 kts | 108° |
| 2026-05-04 22:13 | 55.95085 | -3.35972 | 114 ft | 10 kts | 116° |
| 2026-05-04 22:14 | 55.95056 | -3.35941 | 116 ft | 4 kts | 205° |
| 2026-05-04 22:14 | 55.95041 | -3.35974 | 113 ft | 3 kts | 240° |
| 2026-05-04 22:14 | 55.95027 | -3.36037 | 116 ft | 6 kts | 249° |
| 2026-05-04 22:14 | 55.95021 | -3.36062 | 115 ft | 1 kts | 248° |
| 2026-05-04 22:15 | 55.95020 | -3.36069 | 116 ft | 0 kts | 248° |